Terminal Aerodrome Forecast
Issued by NWS Raleigh/Durham, NC

Home | Current Version | Previous Version | Text Only | Print | Product List | Glossary On
Versions: 1 2 3 4 5 6 7 8 9 10 11 12 13 14 15 16 17 18 19 20 21 22 23 24 25 26 27 28 29 30 31 32 33 34 35 36 37 38 39 40 41 42
387
FTUS42 KRAH 191123
TAFFAY
TAF
KFAY 191123Z 1912/2012 VRB03KT P6SM SCT250
     FM200600 11003KT P6SM OVC100
     FM200900 08003KT P6SM OVC050
      TEMPO 2009/2012 5SM -RA OVC050=

USA.gov is the U.S. government's official web portal to all federal, state and local government web resources and services.